Time;durP1;ratioP1;P1;durP2;ratioP2;P2;SDS_P1;SDS_P2;PMS_P1;PMS_P2;Temp;Humidity;BMP_temperature;BMP_pressure;BME280_temperature;BME280_humidity;BME280_pressure;Samples;Min_cycle;Max_cycle;Signal;HPM_P1;HPM_P2
2023/03/18 00:01:06;;;;;;;1.63;1.00;;;;;;;-145.69;77.60;52226.53;5115445;28;20217;-81
2023/03/18 00:03:34;;;;;;;2.83;1.10;;;;;;;-145.69;73.62;52282.00;5115170;28;20209;-80
2023/03/18 00:06:10;;;;;;;1.77;1.03;;;;;;;-145.69;65.71;52297.84;5115300;28;20606;-80
2023/03/18 00:08:38;;;;;;;2.10;0.90;;;;;;;-145.69;51.04;52278.03;5115049;28;20204;-80
2023/03/18 00:11:05;;;;;;;2.73;1.00;;;;;;;-145.69;52.47;52276.06;5115630;28;20231;-80
2023/03/18 00:13:33;;;;;;;2.37;1.00;;;;;;;-145.69;55.41;52250.31;5114971;28;20851;-81
2023/03/18 00:15:59;;;;;;;1.97;0.90;;;;;;;-145.69;52.48;52250.31;5097342;28;20194;-81
2023/03/18 00:18:26;;;;;;;3.13;0.90;;;;;;;-145.69;53.42;52266.16;5114943;28;20659;-81
2023/03/18 00:20:53;;;;;;;3.23;1.00;;;;;;;-145.69;51.70;52282.00;5114867;28;20201;-80
2023/03/18 00:23:21;;;;;;;3.37;1.00;;;;;;;-145.69;47.72;52244.38;5115153;28;20288;-80
2023/03/18 00:25:48;;;;;;;1.67;1.10;;;;;;;-145.69;49.16;52274.06;5114749;28;20202;-80
2023/03/18 00:28:15;;;;;;;2.67;0.97;;;;;;;-145.69;49.44;52246.34;5114913;28;20212;-80
2023/03/18 00:30:41;;;;;;;4.30;1.20;;;;;;;-145.69;49.38;52258.22;5114688;28;20202;-81
2023/03/18 00:33:09;;;;;;;2.00;0.80;;;;;;;-145.69;48.93;52262.19;5114850;28;20236;-81
2023/03/18 00:35:36;;;;;;;1.63;0.90;;;;;;;-145.69;51.07;52242.38;5114770;28;20296;-80
2023/03/18 00:38:06;;;;;;;2.93;0.87;;;;;;;-145.69;48.24;52246.34;5114725;28;20231;-80
2023/03/18 00:40:52;;;;;;;2.53;1.00;;;;;;;-145.69;47.49;52244.38;5114722;28;20251;-80
2023/03/18 00:43:21;;;;;;;3.47;1.00;;;;;;;-145.69;47.10;52262.19;5094078;28;20226;-80
2023/03/18 00:45:49;;;;;;;1.10;0.90;;;;;;;-145.69;45.39;52242.38;5100332;28;20198;-80
2023/03/18 00:48:16;;;;;;;1.80;0.77;;;;;;;-145.69;48.65;52208.72;5114824;28;20250;-81
2023/03/18 00:50:43;;;;;;;2.90;0.93;;;;;;;-145.69;45.62;52238.44;5114254;28;20781;-80
2023/03/18 00:53:11;;;;;;;4.60;1.10;;;;;;;-145.69;44.81;52224.56;5114410;28;20201;-80
2023/03/18 00:55:39;;;;;;;3.23;1.10;;;;;;;-145.69;45.68;52234.47;5114520;28;20204;-81
2023/03/18 00:58:06;;;;;;;2.33;1.00;;;;;;;-145.69;45.84;52234.47;5114000;28;20205;-81
2023/03/18 01:00:32;;;;;;;1.93;0.80;;;;;;;-145.69;50.66;52252.28;5114311;28;20216;-80
2023/03/18 01:02:59;;;;;;;4.17;1.00;;;;;;;-145.69;51.15;52246.34;5114357;28;20199;-80
2023/03/18 01:05:25;;;;;;;1.40;0.97;;;;;;;-145.69;52.43;52244.38;5113928;28;20650;-80
2023/03/18 01:07:52;;;;;;;2.00;1.10;;;;;;;-145.69;52.79;52230.50;5113977;28;20212;-80
2023/03/18 01:10:19;;;;;;;4.23;1.10;;;;;;;-145.69;52.22;52260.22;5113446;28;20194;-80
2023/03/18 01:12:47;;;;;;;1.27;0.93;;;;;;;-145.69;52.55;52270.13;5113723;28;20221;-80
2023/03/18 01:15:17;;;;;;;2.83;0.80;;;;;;;-145.69;54.47;52264.16;5113031;28;20688;-80
2023/03/18 01:17:44;;;;;;;4.10;1.03;;;;;;;-145.69;59.38;52274.06;5113335;28;20827;-80
2023/03/18 01:20:13;;;;;;;3.67;1.10;;;;;;;-145.69;59.50;52222.59;5113570;28;20721;-80
2023/03/18 01:22:41;;;;;;;3.10;1.27;;;;;;;-145.69;56.47;52268.13;5114065;28;20186;-80
2023/03/18 01:25:08;;;;;;;4.20;1.07;;;;;;;-145.69;57.41;52270.13;5113841;28;20197;-80
2023/03/18 01:27:35;;;;;;;1.83;1.10;;;;;;;-145.69;60.41;52242.38;5113382;28;20193;-81
2023/03/18 01:30:03;;;;;;;1.90;0.90;;;;;;;-145.69;61.29;52254.28;5112127;28;20202;-81
2023/03/18 01:32:30;;;;;;;1.57;1.27;;;;;;;-145.69;66.01;52274.06;5113743;28;20652;-81
2023/03/18 01:34:56;;;;;;;7.73;1.30;;;;;;;-145.69;64.94;52283.97;5113628;28;20626;-81
2023/03/18 01:37:23;;;;;;;2.90;1.20;;;;;;;-145.69;59.26;52230.50;5113552;28;20232;-81
2023/03/18 01:39:50;;;;;;;1.67;0.90;;;;;;;-145.69;62.59;52280.00;5113720;28;20200;-81
2023/03/18 01:42:16;;;;;;;2.57;1.17;;;;;;;-145.69;64.86;52250.31;5113867;28;20221;-80
2023/03/18 01:44:45;;;;;;;8.43;0.90;;;;;;;-145.69;71.30;52282.00;5114239;28;20552;-80
2023/03/18 01:47:15;;;;;;;4.87;1.00;;;;;;;-145.69;74.76;52274.06;5115382;28;20197;-81
2023/03/18 01:49:45;;;;;;;8.00;1.03;;;;;;;-145.69;75.28;52246.34;5114146;28;20650;-81
2023/03/18 01:52:15;;;;;;;8.27;1.33;;;;;;;-145.69;73.76;52262.19;5113648;28;20211;-81
2023/03/18 01:54:46;;;;;;;2.50;1.10;;;;;;;-145.69;70.57;52232.50;5113424;28;20258;-81
2023/03/18 01:57:16;;;;;;;8.07;1.07;;;;;;;-145.69;78.18;52282.00;5113758;28;20205;-80
2023/03/18 01:59:45;;;;;;;1.53;1.03;;;;;;;-145.69;83.18;52266.16;5113451;28;20197;-80
2023/03/18 02:02:15;;;;;;;1.30;0.70;;;;;;;-145.69;80.23;52262.19;5113411;28;20201;-81
2023/03/18 02:04:44;;;;;;;1.40;1.10;;;;;;;-145.69;82.75;52293.88;5113663;28;20205;-80
2023/03/18 02:07:15;;;;;;;3.10;1.00;;;;;;;-145.69;79.66;52305.75;5113288;28;20217;-81
2023/03/18 02:09:42;;;;;;;1.87;0.97;;;;;;;-145.69;82.26;52293.88;5113628;28;20200;-81
2023/03/18 02:12:11;;;;;;;1.40;1.00;;;;;;;-145.69;85.50;52278.03;5113422;28;20201;-81
2023/03/18 02:14:38;;;;;;;4.27;1.23;;;;;;;-145.69;81.36;52274.06;5113515;28;20229;-81
2023/03/18 02:17:09;;;;;;;2.57;1.00;;;;;;;-145.69;81.54;52297.84;5113366;28;20204;-80
2023/03/18 02:19:52;;;;;;;1.60;1.10;;;;;;;-145.69;73.66;52282.00;5112549;28;20193;-80
2023/03/18 02:22:28;;;;;;;1.43;0.90;;;;;;;-145.69;72.37;52270.13;5113181;28;20208;-80
2023/03/18 02:25:04;;;;;;;1.80;1.20;;;;;;;-145.69;74.14;52238.44;5114063;28;20659;-81
2023/03/18 02:27:34;;;;;;;2.67;1.00;;;;;;;-145.69;76.45;52276.06;5116656;28;20193;-80
2023/03/18 02:30:07;;;;;;;1.80;1.10;;;;;;;-145.69;79.79;52270.13;5117834;28;20198;-81
2023/03/18 02:32:34;;;;;;;5.27;1.20;;;;;;;-145.69;83.66;52291.91;5117416;28;20204;-80
2023/03/18 02:35:04;;;;;;;3.47;0.90;;;;;;;-145.69;80.39;52212.69;5117008;28;20772;-80
2023/03/18 02:37:31;;;;;;;2.93;1.00;;;;;;;-145.69;82.25;52274.06;5116972;28;20209;-81
2023/03/18 02:40:12;;;;;;;3.97;0.97;;;;;;;-145.69;79.68;52276.06;5116893;28;20675;-80
2023/03/18 02:42:40;;;;;;;2.60;1.10;;;;;;;-145.69;83.07;52246.34;5116388;28;20221;-80
2023/03/18 02:45:17;;;;;;;2.67;1.07;;;;;;;-145.69;85.49;52280.00;5116420;28;20652;-80
2023/03/18 02:47:45;;;;;;;2.07;1.03;;;;;;;-145.69;84.00;52289.91;5116743;28;20197;-80
2023/03/18 02:50:11;;;;;;;0.87;0.80;;;;;;;-145.69;85.51;52309.72;5116971;28;20197;-80
2023/03/18 02:52:38;;;;;;;2.27;0.83;;;;;;;-145.69;84.06;52244.38;5116805;28;20571;-80
2023/03/18 02:55:06;;;;;;;5.40;1.17;;;;;;;-145.69;87.73;52244.38;5116986;28;20225;-81
2023/03/18 02:57:32;;;;;;;2.13;1.00;;;;;;;-145.69;88.14;52276.06;5098583;28;20296;-81
2023/03/18 03:00:00;;;;;;;2.33;1.00;;;;;;;-145.69;86.54;52250.31;5116931;28;20591;-81
2023/03/18 03:02:27;;;;;;;1.60;1.10;;;;;;;-145.69;84.78;52258.22;5117161;28;20193;-81
2023/03/18 03:04:53;;;;;;;5.30;1.17;;;;;;;-145.69;90.93;52268.13;5116772;28;20221;-81
2023/03/18 03:07:19;;;;;;;4.10;1.20;;;;;;;-145.69;97.10;52297.84;5116884;28;20205;-81
2023/03/18 03:09:46;;;;;;;2.37;1.20;;;;;;;-145.69;98.65;52285.97;5116835;28;20541;-81
2023/03/18 03:12:13;;;;;;;2.73;1.20;;;;;;;-145.69;82.87;52270.13;5117188;28;20224;-80
2023/03/18 03:14:40;;;;;;;4.90;1.07;;;;;;;-145.69;90.60;52266.16;5098342;28;20229;-81
2023/03/18 03:17:08;;;;;;;2.27;1.00;;;;;;;-145.69;97.96;52295.84;5116543;28;20555;-80
2023/03/18 03:19:34;;;;;;;3.13;0.90;;;;;;;-145.69;96.02;52285.97;5116481;28;20288;-80
2023/03/18 03:22:01;;;;;;;3.57;1.10;;;;;;;-145.69;97.51;52274.06;5116238;28;20652;-79
2023/03/18 03:24:28;;;;;;;5.27;1.10;;;;;;;-145.69;100.00;52301.81;5109753;28;20197;-80
2023/03/18 03:26:54;;;;;;;9.20;1.10;;;;;;;-145.69;100.00;52309.72;5096091;28;20298;-80
2023/03/18 03:29:21;;;;;;;3.13;1.30;;;;;;;-145.69;99.00;52293.88;5115276;28;20197;-80
2023/03/18 03:31:47;;;;;;;6.33;1.20;;;;;;;-145.69;95.41;52295.84;5116266;28;20224;-80
2023/03/18 03:34:15;;;;;;;1.93;1.10;;;;;;;-145.69;96.25;52260.22;5115944;28;20193;-80
2023/03/18 03:36:41;;;;;;;2.03;1.10;;;;;;;-145.69;100.00;52252.28;5114896;28;20544;-80
2023/03/18 03:39:08;;;;;;;2.40;0.93;;;;;;;-145.69;100.00;52315.66;5115803;28;20205;-80
2023/03/18 03:41:35;;;;;;;2.67;1.00;;;;;;;-145.69;100.00;52270.13;5115461;28;20700;-80
2023/03/18 03:44:01;;;;;;;2.23;1.10;;;;;;;-145.69;100.00;52283.97;5115488;28;20193;-80
2023/03/18 03:46:27;;;;;;;2.20;1.00;;;;;;;-145.69;95.08;52291.91;5115710;28;20224;-80
2023/03/18 03:48:54;;;;;;;0.90;0.90;;;;;;;-145.69;92.16;52293.88;5116085;28;20204;-80
2023/03/18 03:51:22;;;;;;;2.77;1.10;;;;;;;-145.69;90.48;52297.84;5115631;28;20201;-80
2023/03/18 03:53:49;;;;;;;3.13;0.80;;;;;;;-145.69;100.00;52278.03;5115667;28;20205;-81
2023/03/18 03:56:16;;;;;;;3.67;0.90;;;;;;;-145.69;100.00;52297.84;5115520;28;20825;-81
2023/03/18 03:58:43;;;;;;;2.07;1.00;;;;;;;-145.69;100.00;52295.84;5097642;28;20197;-80
2023/03/18 04:01:10;;;;;;;4.57;1.03;;;;;;;-145.69;100.00;52351.31;5115363;28;20199;-80
2023/03/18 04:03:36;;;;;;;4.73;1.30;;;;;;;-145.69;100.00;52297.84;5115309;28;20202;-80
2023/03/18 04:06:03;;;;;;;4.37;1.00;;;;;;;-145.69;99.87;52319.63;5115045;28;20547;-81
2023/03/18 04:08:31;;;;;;;4.20;1.00;;;;;;;-145.69;97.94;52303.78;5115251;28;20197;-80
2023/03/18 04:10:58;;;;;;;1.53;1.00;;;;;;;-145.69;100.00;52297.84;5115947;28;20201;-82
2023/03/18 04:13:25;;;;;;;2.13;0.90;;;;;;;-145.69;100.00;52325.56;5115489;28;20559;-80
2023/03/18 04:15:52;;;;;;;2.70;1.10;;;;;;;-145.69;100.00;52285.97;5114721;28;20251;-80
2023/03/18 04:18:18;;;;;;;1.13;1.00;;;;;;;-145.69;100.00;52319.63;5115055;28;20201;-80
2023/03/18 04:20:45;;;;;;;1.40;1.03;;;;;;;-145.69;100.00;52309.72;5115149;28;20213;-80
2023/03/18 04:23:13;;;;;;;3.13;1.20;;;;;;;-145.69;100.00;52291.91;5115104;28;20197;-80
2023/03/18 04:25:40;;;;;;;1.93;1.40;;;;;;;-145.69;100.00;52282.00;5116157;28;20205;-81
2023/03/18 04:28:07;;;;;;;1.53;1.10;;;;;;;-145.69;100.00;52313.69;5116427;28;20208;-80
2023/03/18 04:30:34;;;;;;;3.07;1.10;;;;;;;-145.69;100.00;52317.66;5114832;28;20243;-80
2023/03/18 04:33:02;;;;;;;1.90;0.80;;;;;;;-145.69;100.00;52305.75;5115027;28;20201;-81
2023/03/18 04:35:29;;;;;;;1.90;1.13;;;;;;;-145.69;100.00;52285.97;5117955;28;20220;-80
2023/03/18 04:37:56;;;;;;;1.83;1.10;;;;;;;-145.69;99.91;52315.66;5114778;28;20197;-80
2023/03/18 04:40:27;;;;;;;4.30;1.00;;;;;;;-145.69;100.00;52282.00;5115130;28;20296;-80
2023/03/18 04:42:57;;;;;;;1.20;0.90;;;;;;;-145.69;100.00;52285.97;5114352;28;20225;-80
2023/03/18 04:45:23;;;;;;;1.93;1.10;;;;;;;-145.69;99.40;52278.03;5115158;28;20220;-80
2023/03/18 04:47:50;;;;;;;2.60;0.90;;;;;;;-145.69;100.00;52295.84;5114466;28;20197;-80
2023/03/18 04:50:22;;;;;;;1.93;1.10;;;;;;;-145.69;100.00;52272.09;5115820;28;20201;-81
2023/03/18 04:52:49;;;;;;;7.17;1.27;;;;;;;-145.69;100.00;52315.66;5116423;28;20205;-81
2023/03/18 04:55:16;;;;;;;3.23;1.10;;;;;;;-145.69;100.00;52309.72;5115875;28;20316;-80
2023/03/18 04:57:43;;;;;;;4.57;1.10;;;;;;;-145.69;98.39;52276.06;5115340;28;20197;-81
2023/03/18 05:00:16;;;;;;;7.20;1.03;;;;;;;-145.69;99.92;52293.88;5115516;28;20193;-81
2023/03/18 05:02:44;;;;;;;3.10;0.90;;;;;;;-145.69;99.90;52323.59;5114557;28;20276;-80
2023/03/18 05:05:10;;;;;;;3.40;1.17;;;;;;;-145.69;99.66;52287.94;5114782;28;20189;-81
2023/03/18 05:07:37;;;;;;;3.07;1.00;;;;;;;-145.69;97.81;52283.97;5115551;28;20567;-80
2023/03/18 05:10:06;;;;;;;2.87;1.00;;;;;;;-145.69;96.37;52276.06;5116815;28;20208;-81
2023/03/18 05:12:33;;;;;;;2.60;1.03;;;;;;;-145.69;94.72;52274.06;5118561;28;20223;-81
2023/03/18 05:15:00;;;;;;;3.77;1.10;;;;;;;-145.69;93.15;52321.59;5115230;28;20239;-81
2023/03/18 05:17:28;;;;;;;8.50;1.40;;;;;;;-145.69;90.04;52287.94;5096699;28;20194;-81
2023/03/18 05:19:56;;;;;;;1.83;1.03;;;;;;;-145.69;91.75;52313.69;5096684;28;20284;-81
2023/03/18 05:22:23;;;;;;;1.47;0.97;;;;;;;-145.69;92.08;52313.69;5102883;28;20197;-80
2023/03/18 05:24:50;;;;;;;2.30;1.00;;;;;;;-145.69;93.65;52297.84;5114213;28;20217;-80
2023/03/18 05:27:18;;;;;;;2.80;1.03;;;;;;;-145.69;94.11;52303.78;5114627;28;20193;-81
2023/03/18 05:29:48;;;;;;;2.07;0.80;;;;;;;-145.69;93.72;52301.81;5115494;28;20262;-80
2023/03/18 05:32:18;;;;;;;1.83;1.03;;;;;;;-145.69;94.21;52301.81;5114671;28;20292;-81
2023/03/18 05:34:46;;;;;;;4.00;1.10;;;;;;;-145.69;95.30;52335.47;5114606;28;20198;-81
2023/03/18 05:37:14;;;;;;;3.93;1.23;;;;;;;-145.69;99.51;52325.56;5116482;28;20204;-81
2023/03/18 05:39:42;;;;;;;5.07;1.20;;;;;;;-145.69;99.55;52325.56;5116561;28;20206;-80
2023/03/18 05:42:13;;;;;;;2.67;0.90;;;;;;;-145.69;100.00;52287.94;5114991;28;20248;-80
2023/03/18 05:44:41;;;;;;;4.03;1.10;;;;;;;-145.69;100.00;52285.97;5114043;28;20202;-80
2023/03/18 05:47:09;;;;;;;1.53;0.93;;;;;;;-145.69;100.00;52280.00;5113386;28;20202;-80
2023/03/18 05:49:36;;;;;;;4.50;1.20;;;;;;;-145.69;100.00;52301.81;5114499;28;20269;-80
2023/03/18 05:52:04;;;;;;;2.70;0.70;;;;;;;-145.69;100.00;52309.72;5114686;28;20604;-79
2023/03/18 05:54:31;;;;;;;6.80;1.10;;;;;;;-145.69;100.00;52295.84;5114294;28;20197;-80
2023/03/18 05:56:58;;;;;;;2.43;1.10;;;;;;;-145.69;98.67;52291.91;5114603;28;20325;-80
2023/03/18 05:59:25;;;;;;;3.97;1.00;;;;;;;-145.69;98.93;52274.06;5114897;28;20201;-80
2023/03/18 06:01:52;;;;;;;4.63;1.10;;;;;;;-145.69;100.00;52282.00;5117281;28;20566;-80
2023/03/18 06:04:19;;;;;;;3.43;1.30;;;;;;;-145.69;99.67;52287.94;5119884;28;20194;-80
2023/03/18 06:06:47;;;;;;;1.90;0.93;;;;;;;-145.69;100.00;52301.81;5113197;28;20663;-80
2023/03/18 06:09:15;;;;;;;1.40;1.10;;;;;;;-145.69;100.00;52282.00;5114700;28;20623;-80
2023/03/18 06:11:45;;;;;;;6.37;1.10;;;;;;;-145.69;100.00;52303.78;5114199;28;20201;-80
2023/03/18 06:14:13;;;;;;;1.93;1.10;;;;;;;-145.69;100.00;52309.72;5115029;28;20295;-80
2023/03/18 06:16:42;;;;;;;2.73;1.20;;;;;;;-145.69;100.00;52311.69;5117281;28;20354;-80
2023/03/18 06:19:10;;;;;;;6.27;1.30;;;;;;;-145.69;100.00;52319.63;5119104;28;20197;-80
2023/03/18 06:21:37;;;;;;;1.93;1.00;;;;;;;-145.69;100.00;52309.72;5118159;28;20205;-80
2023/03/18 06:24:04;;;;;;;5.27;1.00;;;;;;;-145.69;100.00;52337.44;5118357;28;20201;-81
2023/03/18 06:26:32;;;;;;;1.20;0.90;;;;;;;-145.69;100.00;52278.03;5117128;28;20198;-80
2023/03/18 06:28:58;;;;;;;2.97;1.10;;;;;;;-145.69;100.00;52321.59;5114032;28;20670;-80
2023/03/18 06:31:27;;;;;;;4.30;1.20;;;;;;;-145.69;100.00;52283.97;5115824;28;20237;-81
2023/03/18 06:33:54;;;;;;;1.77;1.10;;;;;;;-145.69;100.00;52303.78;5117596;28;20225;-81
2023/03/18 06:36:23;;;;;;;1.83;1.00;;;;;;;-145.69;100.00;52309.72;5117180;28;20225;-81
2023/03/18 06:38:50;;;;;;;1.07;0.80;;;;;;;-145.69;100.00;52311.69;5116475;28;20202;-81
2023/03/18 06:41:18;;;;;;;1.23;1.00;;;;;;;-145.69;100.00;52305.75;5118182;28;20267;-81
2023/03/18 06:43:49;;;;;;;2.83;1.00;;;;;;;-145.69;100.00;52303.78;5116478;28;20252;-80
2023/03/18 06:46:17;;;;;;;2.47;1.00;;;;;;;-145.69;100.00;52333.47;5113482;28;20197;-80
2023/03/18 06:48:44;;;;;;;2.73;1.03;;;;;;;-145.69;100.00;52266.16;5113428;28;20206;-80
2023/03/18 06:51:11;;;;;;;4.97;0.90;;;;;;;-145.69;100.00;52299.81;5115549;28;20247;-81
2023/03/18 06:53:38;;;;;;;1.80;0.70;;;;;;;-145.69;100.00;52315.66;5115641;28;20194;-81
2023/03/18 06:56:08;;;;;;;3.90;1.10;;;;;;;-145.69;100.00;52337.44;5117711;28;20228;-81
2023/03/18 06:58:35;;;;;;;5.77;1.20;;;;;;;-145.69;100.00;52313.69;5114962;28;20255;-81
2023/03/18 07:01:03;;;;;;;6.73;1.17;;;;;;;-145.69;100.00;52260.22;5113621;28;20197;-81
2023/03/18 07:03:29;;;;;;;3.60;1.10;;;;;;;-145.69;100.00;52305.75;5112825;28;20200;-79
2023/03/18 07:05:58;;;;;;;4.33;1.40;;;;;;;-145.69;100.00;52266.16;5114077;28;20208;-81
2023/03/18 07:08:25;;;;;;;6.40;1.00;;;;;;;-145.69;100.00;52325.56;5101769;28;20209;-81
2023/03/18 07:10:52;;;;;;;5.27;1.23;;;;;;;-145.69;100.00;52319.63;5100591;28;20198;-81
2023/03/18 07:13:21;;;;;;;3.07;0.90;;;;;;;-145.69;100.00;52282.00;5113948;28;20205;-81
2023/03/18 07:15:48;;;;;;;2.17;0.80;;;;;;;-145.69;100.00;52282.00;5122437;28;20225;-81
2023/03/18 07:18:16;;;;;;;3.13;1.00;;;;;;;-145.69;100.00;52299.81;5121125;28;20233;-81
2023/03/18 07:20:43;;;;;;;2.60;1.20;;;;;;;-145.69;100.00;52305.75;5122618;28;20205;-81
2023/03/18 07:23:10;;;;;;;2.47;0.90;;;;;;;-145.69;100.00;52282.00;5127671;28;20234;-82
2023/03/18 07:25:37;;;;;;;2.17;1.13;;;;;;;-145.69;100.00;52276.06;5126059;28;20205;-81
2023/03/18 07:28:04;;;;;;;1.53;1.00;;;;;;;-145.69;99.62;52264.16;5125101;28;20201;-81
2023/03/18 07:30:33;;;;;;;5.03;1.03;;;;;;;-145.69;96.03;52293.88;5122563;28;20203;-82
2023/03/18 07:33:00;;;;;;;1.93;0.90;;;;;;;-145.69;90.78;52264.16;5121862;28;20197;-82
2023/03/18 07:35:28;;;;;;;1.67;0.80;;;;;;;-145.69;87.87;52301.81;5120420;28;20651;-82
2023/03/18 07:37:54;;;;;;;1.83;1.20;;;;;;;-145.69;87.00;52274.06;5118208;28;20198;-79
2023/03/18 07:40:21;;;;;;;2.07;0.80;;;;;;;-145.69;83.92;52256.25;5120045;28;20256;-81
2023/03/18 07:42:50;;;;;;;1.63;1.10;;;;;;;-145.69;77.87;52232.50;5123341;28;20221;-81
2023/03/18 07:45:17;;;;;;;1.50;1.00;;;;;;;-145.69;82.40;52295.84;5123713;28;20201;-81
2023/03/18 07:47:43;;;;;;;1.20;0.80;;;;;;;-145.69;72.56;52220.59;5123368;28;20564;-81
2023/03/18 07:50:12;;;;;;;3.27;1.37;;;;;;;-145.69;65.16;52246.34;5124105;28;20196;-81
2023/03/18 07:52:40;;;;;;;1.93;0.97;;;;;;;-145.69;68.20;52238.44;5124729;28;20197;-81
2023/03/18 07:55:08;;;;;;;2.37;1.10;;;;;;;-145.69;62.53;52248.34;5123306;28;20228;-81
2023/03/18 07:57:35;;;;;;;3.00;0.90;;;;;;;-145.69;63.34;52248.34;5120128;28;20229;-81
2023/03/18 08:00:03;;;;;;;2.67;1.00;;;;;;;-145.69;63.49;52250.31;5122175;28;20198;-81
2023/03/18 08:02:30;;;;;;;2.13;0.83;;;;;;;-145.69;62.83;52222.59;5122501;28;20239;-82
2023/03/18 08:05:00;;;;;;;2.63;1.10;;;;;;;-145.69;54.34;52232.50;5105833;28;20193;-82
2023/03/18 08:07:27;;;;;;;1.10;0.70;;;;;;;-145.69;49.70;52226.53;5121896;28;20205;-80
2023/03/18 08:10:01;;;;;;;1.27;0.87;;;;;;;-145.69;48.36;52252.28;5122280;28;20193;-81
2023/03/18 08:12:28;;;;;;;1.43;0.70;;;;;;;-145.69;44.30;52222.59;5122214;28;20190;-81
2023/03/18 08:14:55;;;;;;;1.77;0.80;;;;;;;-145.69;43.36;52232.50;5120846;28;20552;-81
2023/03/18 08:17:22;;;;;;;1.60;0.80;;;;;;;-145.69;43.67;52200.81;5116342;28;20225;-81
2023/03/18 08:19:51;;;;;;;2.30;0.83;;;;;;;-145.69;44.71;52220.59;5115106;28;20201;-81
2023/03/18 08:22:17;;;;;;;2.78;1.00;;;;;;;-145.69;46.63;52232.50;5116021;28;20204;-82
2023/03/18 08:24:44;;;;;;;2.03;0.95;;;;;;;-145.69;43.84;52234.47;5116253;28;20291;-82
2023/03/18 08:27:12;;;;;;;1.08;0.80;;;;;;;-145.69;43.00;52242.38;5116837;28;20275;-82
2023/03/18 08:29:39;;;;;;;5.63;1.23;;;;;;;-145.69;45.62;52200.81;5117217;28;20201;-82
2023/03/18 08:32:06;;;;;;;5.55;1.02;;;;;;;-145.69;41.52;52198.81;5117899;28;20198;-82
2023/03/18 08:34:33;;;;;;;3.90;0.82;;;;;;;-145.69;39.94;52214.66;5118827;28;20662;-82
2023/03/18 08:36:59;;;;;;;1.77;0.80;;;;;;;-145.69;41.02;52214.66;5120159;28;20223;-83
2023/03/18 08:39:27;;;;;;;5.80;1.25;;;;;;;-145.69;40.59;52188.91;5119118;28;20202;-83
2023/03/18 08:41:53;;;;;;;1.45;0.85;;;;;;;-145.69;40.46;52186.94;5118810;28;20233;-83
2023/03/18 08:44:22;;;;;;;3.22;0.90;;;;;;;-145.69;41.71;52234.47;5119810;28;20288;-84
2023/03/18 08:46:48;;;;;;;1.80;1.10;;;;;;;-145.69;40.94;52236.44;5118916;28;20200;-83
2023/03/18 08:49:17;;;;;;;1.42;0.90;;;;;;;-145.69;39.61;52214.66;5119120;28;20236;-83
2023/03/18 08:51:47;;;;;;;4.28;0.90;;;;;;;-145.69;40.04;52210.72;5118931;28;20248;-83
2023/03/18 08:54:13;;;;;;;1.98;0.77;;;;;;;-145.69;39.45;52210.72;5118832;28;20213;-82
2023/03/18 08:56:40;;;;;;;4.15;0.90;;;;;;;-145.69;39.30;52196.84;5117620;28;20323;-84
2023/03/18 08:59:07;;;;;;;3.17;1.15;;;;;;;-145.69;39.80;52214.66;5099993;28;20226;-84
2023/03/18 09:01:35;;;;;;;3.63;1.00;;;;;;;-145.69;39.05;52161.19;5096869;28;20731;-83
2023/03/18 09:04:01;;;;;;;2.63;1.08;;;;;;;-145.69;38.77;52179.03;5106261;28;20194;-83
2023/03/18 09:06:28;;;;;;;3.35;1.08;;;;;;;-145.69;39.96;52198.81;5117407;28;20203;-83
2023/03/18 09:08:55;;;;;;;5.93;1.08;;;;;;;-145.69;37.72;52194.88;5116539;28;20647;-83
2023/03/18 09:11:22;;;;;;;1.27;0.80;;;;;;;-145.69;38.58;52202.78;5117723;28;20194;-84
2023/03/18 09:13:49;;;;;;;3.58;1.38;;;;;;;-145.69;37.42;52153.28;5117372;28;20594;-84
2023/03/18 09:16:16;;;;;;;2.17;0.90;;;;;;;-145.69;37.39;52202.78;5117210;28;20237;-83
2023/03/18 09:18:44;;;;;;;4.53;1.13;;;;;;;-145.69;37.91;52194.88;5117850;28;20205;-83
2023/03/18 09:21:10;;;;;;;2.40;1.05;;;;;;;-145.69;38.48;52194.88;5117432;28;20197;-83
2023/03/18 09:23:37;;;;;;;5.57;0.85;;;;;;;-145.69;37.19;52145.34;5116798;28;20211;-83
2023/03/18 09:26:04;;;;;;;3.78;1.30;;;;;;;-145.69;37.29;52190.91;5098339;28;20236;-83
2023/03/18 09:28:30;;;;;;;1.55;0.90;;;;;;;-145.69;38.24;52167.13;5116155;28;20242;-83
2023/03/18 09:30:57;;;;;;;1.05;0.90;;;;;;;-145.69;37.33;52151.28;5116414;28;20201;-83
2023/03/18 09:33:24;;;;;;;8.48;0.90;;;;;;;-145.69;37.42;52159.22;5116269;28;20197;-83
2023/03/18 09:35:58;;;;;;;2.92;1.17;;;;;;;-145.69;36.45;52186.94;5115904;28;20255;-83
2023/03/18 09:38:25;;;;;;;3.03;0.95;;;;;;;-145.69;38.80;52153.28;5117678;28;20279;-84
2023/03/18 09:41:05;;;;;;;2.58;0.70;;;;;;;-145.69;36.54;52179.03;5115647;28;20564;-83
2023/03/18 09:43:52;;;;;;;3.70;0.80;;;;;;;-145.69;36.34;52175.06;5118552;28;20228;-83
2023/03/18 09:46:28;;;;;;;1.90;1.00;;;;;;;-145.69;37.72;52175.06;5116762;28;20208;-84
2023/03/18 09:49:09;;;;;;;2.30;0.85;;;;;;;-145.69;35.99;52157.25;5116655;28;20197;-83
2023/03/18 09:51:51;;;;;;;3.05;1.20;;;;;;;-145.69;36.87;52182.97;5113572;28;20304;-82
2023/03/18 09:54:23;;;;;;;2.67;0.80;;;;;;;-145.69;38.09;52196.84;5116580;28;20197;-83
2023/03/18 09:56:52;;;;;;;3.35;1.05;;;;;;;-145.69;38.01;52165.16;5117750;28;20687;-83
2023/03/18 09:59:25;;;;;;;4.70;1.10;;;;;;;-145.69;36.94;52139.41;5118534;28;20197;-83
2023/03/18 10:01:54;;;;;;;1.38;0.90;;;;;;;-145.69;34.22;52149.31;5118052;28;20193;-83
2023/03/18 10:04:24;;;;;;;3.40;0.70;;;;;;;-145.69;35.58;52181.00;5118828;28;20205;-83
2023/03/18 10:06:58;;;;;;;1.90;0.82;;;;;;;-145.69;34.39;52171.09;5120113;28;20204;-84
2023/03/18 10:09:30;;;;;;;0.63;0.60;;;;;;;-145.69;35.25;52171.09;5122867;28;20226;-83
2023/03/18 10:12:06;;;;;;;2.35;0.88;;;;;;;-145.69;34.74;52151.28;5121411;28;20202;-84
2023/03/18 10:14:37;;;;;;;4.07;1.00;;;;;;;-145.69;35.63;52153.28;5122224;28;20199;-83
2023/03/18 10:17:16;;;;;;;1.83;1.00;;;;;;;-145.69;34.39;52155.25;5120700;28;20221;-85
2023/03/18 10:19:47;;;;;;;1.92;0.80;;;;;;;-145.69;35.49;52139.41;5121508;28;20232;-83
2023/03/18 10:22:34;;;;;;;2.88;0.90;;;;;;;-145.69;34.48;52111.69;5122496;28;20293;-84
2023/03/18 10:25:10;;;;;;;2.67;0.70;;;;;;;-145.69;35.44;52131.50;5121980;28;20205;-84
2023/03/18 10:27:49;;;;;;;4.00;1.00;;;;;;;-145.69;34.93;52151.28;5123130;28;20207;-84
2023/03/18 10:30:29;;;;;;;1.60;0.80;;;;;;;-145.69;35.50;52163.19;5123700;28;20223;-84
2023/03/18 10:33:04;;;;;;;4.72;1.00;;;;;;;-145.69;35.64;52161.19;5122815;28;20194;-85
2023/03/18 10:35:36;;;;;;;3.05;1.08;;;;;;;-145.69;35.03;52161.19;5120930;28;20228;-85
2023/03/18 10:38:16;;;;;;;4.95;1.10;;;;;;;-145.69;35.74;52143.38;5120349;28;20227;-84
2023/03/18 10:40:43;;;;;;;3.05;1.15;;;;;;;-145.69;35.40;52143.38;5120309;28;20201;-84
2023/03/18 10:43:16;;;;;;;3.70;1.13;;;;;;;-145.69;37.01;52149.31;5120643;28;20725;-85
2023/03/18 10:45:44;;;;;;;2.30;0.98;;;;;;;-145.69;35.59;52131.50;5120769;28;20201;-84
2023/03/18 10:48:19;;;;;;;3.20;1.00;;;;;;;-145.69;35.60;52127.53;5122153;28;20221;-84
2023/03/18 10:50:52;;;;;;;2.72;1.13;;;;;;;-145.69;35.91;52159.22;5125000;28;20221;-84
2023/03/18 10:53:26;;;;;;;1.83;1.10;;;;;;;-145.69;36.99;52131.50;5124530;28;20644;-84
2023/03/18 10:55:58;;;;;;;1.35;0.90;;;;;;;-145.69;37.68;52135.47;5125010;28;20209;-84
2023/03/18 10:58:27;;;;;;;1.50;0.85;;;;;;;-145.69;36.89;52153.28;5123874;28;20232;-84
2023/03/18 11:00:54;;;;;;;3.08;0.98;;;;;;;-145.69;36.17;52169.13;5124131;28;20201;-84
2023/03/18 11:03:26;;;;;;;4.45;1.40;;;;;;;-145.69;36.60;52151.28;5124302;28;20614;-84
2023/03/18 11:05:54;;;;;;;1.85;1.20;;;;;;;-145.69;36.55;52143.38;5109004;28;20194;-84
2023/03/18 11:08:36;;;;;;;2.75;1.10;;;;;;;-145.69;36.38;52155.25;5104401;28;20658;-84
2023/03/18 11:11:21;;;;;;;5.00;1.20;;;;;;;-145.69;35.97;52139.41;5107565;28;20189;-84
2023/03/18 11:13:51;;;;;;;5.05;2.03;;;;;;;-145.69;36.47;52131.50;5119917;28;20292;-83
2023/03/18 11:16:37;;;;;;;5.18;1.27;;;;;;;-145.69;36.52;52113.66;5117984;28;20197;-84
2023/03/18 11:19:26;;;;;;;2.65;1.20;;;;;;;-145.69;37.29;52163.19;5119450;28;20284;-83
2023/03/18 11:22:03;;;;;;;3.05;1.17;;;;;;;-145.69;38.06;52173.09;5120135;28;20233;-82